sensor_id;sensor_type;location;lat;lon;timestamp;P1;durP1;ratioP1;P2;durP2;ratioP2
3099;SDS011;1560;52.746;13.474;2023-02-01T08:45:24;4.08;;;1.80;;
3099;SDS011;1560;52.746;13.474;2023-02-01T08:47:55;4.10;;;1.80;;
3099;SDS011;1560;52.746;13.474;2023-02-01T08:50:25;3.90;;;2.20;;
3099;SDS011;1560;52.746;13.474;2023-02-01T08:52:54;4.45;;;1.95;;
3099;SDS011;1560;52.746;13.474;2023-02-01T08:58:00;4.85;;;2.17;;
3099;SDS011;1560;52.746;13.474;2023-02-01T09:00:28;5.60;;;2.33;;
3099;SDS011;1560;52.746;13.474;2023-02-01T09:02:58;3.67;;;1.30;;
3099;SDS011;1560;52.746;13.474;2023-02-01T09:05:27;3.40;;;1.60;;
3099;SDS011;1560;52.746;13.474;2023-02-01T09:10:32;6.17;;;1.82;;
3099;SDS011;1560;52.746;13.474;2023-02-01T09:13:02;3.35;;;1.57;;
3099;SDS011;1560;52.746;13.474;2023-02-01T09:15:30;5.03;;;1.80;;
3099;SDS011;1560;52.746;13.474;2023-02-01T09:17:59;3.60;;;2.22;;
3099;SDS011;1560;52.746;13.474;2023-02-01T09:23:04;3.50;;;1.60;;
3099;SDS011;1560;52.746;13.474;2023-02-01T09:25:33;3.67;;;1.87;;
3099;SDS011;1560;52.746;13.474;2023-02-01T09:28:04;4.87;;;1.70;;
3099;SDS011;1560;52.746;13.474;2023-02-01T09:33:12;3.95;;;2.00;;
3099;SDS011;1560;52.746;13.474;2023-02-01T09:35:41;5.35;;;2.25;;
3099;SDS011;1560;52.746;13.474;2023-02-01T09:40:46;12.33;;;2.45;;
3099;SDS011;1560;52.746;13.474;2023-02-01T09:43:18;7.83;;;2.62;;
3099;SDS011;1560;52.746;13.474;2023-02-01T09:46:00;4.95;;;1.85;;
3099;SDS011;1560;52.746;13.474;2023-02-01T09:48:33;4.00;;;2.10;;
3099;SDS011;1560;52.746;13.474;2023-02-01T09:51:04;4.60;;;2.00;;
3099;SDS011;1560;52.746;13.474;2023-02-01T09:53:37;3.95;;;1.70;;
3099;SDS011;1560;52.746;13.474;2023-02-01T09:58:47;3.87;;;2.77;;
3099;SDS011;1560;52.746;13.474;2023-02-01T10:01:19;5.33;;;2.40;;
3099;SDS011;1560;52.746;13.474;2023-02-01T10:03:50;5.42;;;1.75;;
3099;SDS011;1560;52.746;13.474;2023-02-01T10:06:25;6.05;;;2.17;;
3099;SDS011;1560;52.746;13.474;2023-02-01T10:09:08;4.17;;;1.90;;
3099;SDS011;1560;52.746;13.474;2023-02-01T10:17:31;7.70;;;2.15;;
3099;SDS011;1560;52.746;13.474;2023-02-01T10:20:09;3.00;;;1.45;;
3099;SDS011;1560;52.746;13.474;2023-02-01T10:22:40;3.95;;;1.32;;
3099;SDS011;1560;52.746;13.474;2023-02-01T10:25:14;4.00;;;1.35;;
3099;SDS011;1560;52.746;13.474;2023-02-01T10:30:23;4.72;;;1.55;;
3099;SDS011;1560;52.746;13.474;2023-02-01T10:32:56;5.60;;;1.65;;
3099;SDS011;1560;52.746;13.474;2023-02-01T10:35:28;4.78;;;1.72;;
3099;SDS011;1560;52.746;13.474;2023-02-01T10:40:35;4.83;;;2.10;;
3099;SDS011;1560;52.746;13.474;2023-02-01T10:43:05;9.35;;;1.90;;
3099;SDS011;1560;52.746;13.474;2023-02-01T10:45:37;5.78;;;1.87;;
3099;SDS011;1560;52.746;13.474;2023-02-01T10:48:08;7.47;;;1.92;;
3099;SDS011;1560;52.746;13.474;2023-02-01T10:50:38;8.15;;;2.15;;
3099;SDS011;1560;52.746;13.474;2023-02-01T10:53:11;5.70;;;1.90;;
3099;SDS011;1560;52.746;13.474;2023-02-01T10:55:46;6.53;;;2.25;;
3099;SDS011;1560;52.746;13.474;2023-02-01T10:58:17;6.00;;;2.50;;
3099;SDS011;1560;52.746;13.474;2023-02-01T11:03:34;7.47;;;2.27;;
3099;SDS011;1560;52.746;13.474;2023-02-01T11:06:14;5.28;;;2.90;;
3099;SDS011;1560;52.746;13.474;2023-02-01T11:08:49;3.77;;;1.60;;
3099;SDS011;1560;52.746;13.474;2023-02-01T11:11:19;5.10;;;2.10;;
3099;SDS011;1560;52.746;13.474;2023-02-01T11:13:53;3.67;;;1.62;;
3099;SDS011;1560;52.746;13.474;2023-02-01T11:16:29;4.80;;;2.00;;
3099;SDS011;1560;52.746;13.474;2023-02-01T11:19:00;5.80;;;1.60;;
3099;SDS011;1560;52.746;13.474;2023-02-01T11:21:29;3.75;;;1.70;;
3099;SDS011;1560;52.746;13.474;2023-02-01T11:24:00;5.05;;;2.58;;
3099;SDS011;1560;52.746;13.474;2023-02-01T11:26:31;8.98;;;2.65;;
3099;SDS011;1560;52.746;13.474;2023-02-01T11:29:02;7.37;;;2.02;;
3099;SDS011;1560;52.746;13.474;2023-02-01T11:31:32;6.80;;;2.50;;
3099;SDS011;1560;52.746;13.474;2023-02-01T11:34:05;6.35;;;2.30;;
3099;SDS011;1560;52.746;13.474;2023-02-01T11:36:36;10.32;;;2.45;;
3099;SDS011;1560;52.746;13.474;2023-02-01T11:39:20;7.12;;;2.15;;
3099;SDS011;1560;52.746;13.474;2023-02-01T11:41:56;4.37;;;3.10;;
3099;SDS011;1560;52.746;13.474;2023-02-01T11:44:30;7.78;;;2.60;;
3099;SDS011;1560;52.746;13.474;2023-02-01T11:50:14;7.90;;;2.77;;
3099;SDS011;1560;52.746;13.474;2023-02-01T11:52:49;6.42;;;2.47;;
3099;SDS011;1560;52.746;13.474;2023-02-01T11:55:42;13.43;;;3.40;;
3099;SDS011;1560;52.746;13.474;2023-02-01T11:58:19;9.48;;;4.03;;
3099;SDS011;1560;52.746;13.474;2023-02-01T12:07:10;10.78;;;3.20;;
3099;SDS011;1560;52.746;13.474;2023-02-01T12:12:24;10.13;;;3.33;;
3099;SDS011;1560;52.746;13.474;2023-02-01T12:15:12;6.05;;;2.90;;
3099;SDS011;1560;52.746;13.474;2023-02-01T12:17:56;14.38;;;3.67;;
3099;SDS011;1560;52.746;13.474;2023-02-01T12:23:28;12.13;;;3.70;;
3099;SDS011;1560;52.746;13.474;2023-02-01T12:26:07;11.03;;;3.08;;
3099;SDS011;1560;52.746;13.474;2023-02-01T12:34:30;18.30;;;3.92;;
3099;SDS011;1560;52.746;13.474;2023-02-01T12:37:08;8.35;;;3.55;;
3099;SDS011;1560;52.746;13.474;2023-02-01T12:42:17;7.22;;;1.50;;
3099;SDS011;1560;52.746;13.474;2023-02-01T12:44:49;4.72;;;1.22;;
3099;SDS011;1560;52.746;13.474;2023-02-01T12:47:24;3.95;;;1.15;;
3099;SDS011;1560;52.746;13.474;2023-02-01T12:49:57;7.17;;;1.52;;
3099;SDS011;1560;52.746;13.474;2023-02-01T13:05:34;4.62;;;1.72;;
3099;SDS011;1560;52.746;13.474;2023-02-01T13:10:47;7.87;;;1.52;;
3099;SDS011;1560;52.746;13.474;2023-02-01T13:13:20;4.83;;;1.10;;
3099;SDS011;1560;52.746;13.474;2023-02-01T13:15:54;3.25;;;1.20;;
3099;SDS011;1560;52.746;13.474;2023-02-01T13:18:24;3.87;;;1.12;;
3099;SDS011;1560;52.746;13.474;2023-02-01T13:20:58;5.53;;;1.25;;
3099;SDS011;1560;52.746;13.474;2023-02-01T13:26:04;3.47;;;1.32;;
3099;SDS011;1560;52.746;13.474;2023-02-01T13:28:36;4.80;;;1.32;;
3099;SDS011;1560;52.746;13.474;2023-02-01T13:31:17;4.20;;;1.60;;
3099;SDS011;1560;52.746;13.474;2023-02-01T13:37:08;2.80;;;1.30;;
3099;SDS011;1560;52.746;13.474;2023-02-01T13:39:47;3.85;;;1.62;;
3099;SDS011;1560;52.746;13.474;2023-02-01T13:42:20;5.37;;;1.55;;
3099;SDS011;1560;52.746;13.474;2023-02-01T13:44:52;5.03;;;1.72;;
3099;SDS011;1560;52.746;13.474;2023-02-01T13:47:26;4.70;;;1.70;;
3099;SDS011;1560;52.746;13.474;2023-02-01T13:49:58;7.22;;;2.30;;
3099;SDS011;1560;52.746;13.474;2023-02-01T13:52:32;6.37;;;1.92;;
3099;SDS011;1560;52.746;13.474;2023-02-01T13:57:51;8.05;;;2.15;;
3099;SDS011;1560;52.746;13.474;2023-02-01T14:03:10;7.28;;;2.02;;
3099;SDS011;1560;52.746;13.474;2023-02-01T14:05:55;10.08;;;2.60;;
3099;SDS011;1560;52.746;13.474;2023-02-01T14:08:37;7.90;;;2.60;;
3099;SDS011;1560;52.746;13.474;2023-02-01T14:11:30;14.13;;;3.55;;
3099;SDS011;1560;52.746;13.474;2023-02-01T14:14:36;10.25;;;2.50;;
3099;SDS011;1560;52.746;13.474;2023-02-01T14:23:21;8.53;;;3.70;;
3099;SDS011;1560;52.746;13.474;2023-02-01T14:29:09;10.32;;;3.55;;
3099;SDS011;1560;52.746;13.474;2023-02-01T14:31:53;16.20;;;3.12;;
3099;SDS011;1560;52.746;13.474;2023-02-01T14:37:23;13.85;;;4.85;;
3099;SDS011;1560;52.746;13.474;2023-02-01T14:39:55;15.63;;;4.10;;
3099;SDS011;1560;52.746;13.474;2023-02-01T14:48:43;10.13;;;3.30;;
3099;SDS011;1560;52.746;13.474;2023-02-01T14:53:53;11.18;;;3.40;;
3099;SDS011;1560;52.746;13.474;2023-02-01T14:59:06;13.00;;;3.92;;
3099;SDS011;1560;52.746;13.474;2023-02-01T15:01:37;9.45;;;4.08;;
3099;SDS011;1560;52.746;13.474;2023-02-01T15:04:09;14.68;;;4.35;;
3099;SDS011;1560;52.746;13.474;2023-02-01T15:09:18;10.53;;;4.10;;
3099;SDS011;1560;52.746;13.474;2023-02-01T15:11:59;13.80;;;4.33;;
3099;SDS011;1560;52.746;13.474;2023-02-01T15:14:31;9.58;;;3.80;;
3099;SDS011;1560;52.746;13.474;2023-02-01T15:19:38;13.65;;;4.60;;
3099;SDS011;1560;52.746;13.474;2023-02-01T15:22:17;8.40;;;3.90;;
3099;SDS011;1560;52.746;13.474;2023-02-01T15:24:55;19.60;;;4.65;;
3099;SDS011;1560;52.746;13.474;2023-02-01T15:27:28;10.40;;;4.45;;
3099;SDS011;1560;52.746;13.474;2023-02-01T15:30:06;10.30;;;4.10;;
3099;SDS011;1560;52.746;13.474;2023-02-01T15:35:38;6.90;;;3.10;;
3099;SDS011;1560;52.746;13.474;2023-02-01T15:38:19;12.98;;;5.95;;
3099;SDS011;1560;52.746;13.474;2023-02-01T15:40:54;13.35;;;4.47;;
3099;SDS011;1560;52.746;13.474;2023-02-01T15:43:27;6.92;;;3.20;;
3099;SDS011;1560;52.746;13.474;2023-02-01T15:48:42;3.08;;;2.00;;
3099;SDS011;1560;52.746;13.474;2023-02-01T15:51:14;3.98;;;2.20;;
3099;SDS011;1560;52.746;13.474;2023-02-01T15:53:47;5.25;;;2.25;;
3099;SDS011;1560;52.746;13.474;2023-02-01T15:56:23;4.53;;;2.55;;
3099;SDS011;1560;52.746;13.474;2023-02-01T15:58:56;3.98;;;1.82;;
3099;SDS011;1560;52.746;13.474;2023-02-01T16:01:28;6.60;;;2.10;;
3099;SDS011;1560;52.746;13.474;2023-02-01T16:04:05;5.60;;;2.25;;
3099;SDS011;1560;52.746;13.474;2023-02-01T16:06:45;4.47;;;2.27;;
3099;SDS011;1560;52.746;13.474;2023-02-01T16:11:55;2.65;;;1.45;;
3099;SDS011;1560;52.746;13.474;2023-02-01T16:14:26;2.65;;;1.10;;
3099;SDS011;1560;52.746;13.474;2023-02-01T16:16:57;3.70;;;1.50;;
3099;SDS011;1560;52.746;13.474;2023-02-01T16:19:26;2.10;;;1.00;;
3099;SDS011;1560;52.746;13.474;2023-02-01T16:21:55;2.10;;;1.30;;
3099;SDS011;1560;52.746;13.474;2023-02-01T16:24:24;2.40;;;0.90;;
3099;SDS011;1560;52.746;13.474;2023-02-01T16:26:53;2.70;;;1.02;;
3099;SDS011;1560;52.746;13.474;2023-02-01T16:29:22;2.52;;;1.17;;
3099;SDS011;1560;52.746;13.474;2023-02-01T16:31:51;1.80;;;1.10;;
3099;SDS011;1560;52.746;13.474;2023-02-01T16:36:56;2.27;;;0.93;;
3099;SDS011;1560;52.746;13.474;2023-02-01T16:39:26;1.90;;;0.90;;
3099;SDS011;1560;52.746;13.474;2023-02-01T16:41:57;3.65;;;1.60;;
3099;SDS011;1560;52.746;13.474;2023-02-01T16:44:26;1.75;;;1.00;;
3099;SDS011;1560;52.746;13.474;2023-02-01T16:46:55;2.17;;;1.00;;
3099;SDS011;1560;52.746;13.474;2023-02-01T16:49:25;2.05;;;1.30;;
3099;SDS011;1560;52.746;13.474;2023-02-01T16:51:55;2.10;;;1.00;;
3099;SDS011;1560;52.746;13.474;2023-02-01T16:54:34;2.95;;;1.45;;
3099;SDS011;1560;52.746;13.474;2023-02-01T16:57:02;3.62;;;1.37;;
3099;SDS011;1560;52.746;13.474;2023-02-01T17:02:10;3.25;;;1.70;;
3099;SDS011;1560;52.746;13.474;2023-02-01T17:04:40;2.95;;;1.30;;
3099;SDS011;1560;52.746;13.474;2023-02-01T17:07:11;4.35;;;1.35;;
3099;SDS011;1560;52.746;13.474;2023-02-01T17:09:41;2.30;;;1.45;;
3099;SDS011;1560;52.746;13.474;2023-02-01T17:12:14;5.53;;;1.60;;
3099;SDS011;1560;52.746;13.474;2023-02-01T17:14:44;8.40;;;1.75;;
3099;SDS011;1560;52.746;13.474;2023-02-01T17:17:22;3.22;;;1.57;;
3099;SDS011;1560;52.746;13.474;2023-02-01T17:19:53;2.30;;;1.50;;
3099;SDS011;1560;52.746;13.474;2023-02-01T17:22:30;2.80;;;1.62;;
3099;SDS011;1560;52.746;13.474;2023-02-01T17:24:59;2.55;;;1.50;;
3099;SDS011;1560;52.746;13.474;2023-02-01T17:27:28;5.12;;;1.77;;
3099;SDS011;1560;52.746;13.474;2023-02-01T17:29:57;3.75;;;2.02;;
3099;SDS011;1560;52.746;13.474;2023-02-01T17:32:27;4.28;;;1.87;;
3099;SDS011;1560;52.746;13.474;2023-02-01T17:35:05;3.40;;;2.12;;
3099;SDS011;1560;52.746;13.474;2023-02-01T17:37:39;3.50;;;1.60;;
3099;SDS011;1560;52.746;13.474;2023-02-01T17:40:09;4.83;;;2.02;;
3099;SDS011;1560;52.746;13.474;2023-02-01T17:42:48;2.80;;;1.75;;
3099;SDS011;1560;52.746;13.474;2023-02-01T17:45:20;5.45;;;2.20;;
3099;SDS011;1560;52.746;13.474;2023-02-01T17:47:52;6.08;;;2.35;;
3099;SDS011;1560;52.746;13.474;2023-02-01T17:50:21;3.35;;;1.65;;
3099;SDS011;1560;52.746;13.474;2023-02-01T17:55:33;4.30;;;2.02;;
3099;SDS011;1560;52.746;13.474;2023-02-01T17:58:00;2.83;;;1.82;;
3099;SDS011;1560;52.746;13.474;2023-02-01T18:00:29;7.05;;;2.25;;
3099;SDS011;1560;52.746;13.474;2023-02-01T18:02:58;8.63;;;2.58;;
3099;SDS011;1560;52.746;13.474;2023-02-01T18:08:04;5.40;;;1.77;;
3099;SDS011;1560;52.746;13.474;2023-02-01T18:10:33;4.05;;;2.10;;
3099;SDS011;1560;52.746;13.474;2023-02-01T18:13:03;7.03;;;2.47;;
3099;SDS011;1560;52.746;13.474;2023-02-01T18:18:08;6.95;;;2.45;;
3099;SDS011;1560;52.746;13.474;2023-02-01T18:20:37;4.58;;;1.77;;
3099;SDS011;1560;52.746;13.474;2023-02-01T18:23:12;5.15;;;2.37;;
3099;SDS011;1560;52.746;13.474;2023-02-01T18:28:19;6.50;;;2.92;;
3099;SDS011;1560;52.746;13.474;2023-02-01T18:30:49;4.85;;;2.60;;
3099;SDS011;1560;52.746;13.474;2023-02-01T18:33:18;6.12;;;3.10;;
3099;SDS011;1560;52.746;13.474;2023-02-01T18:35:48;6.80;;;2.90;;
3099;SDS011;1560;52.746;13.474;2023-02-01T18:38:17;9.35;;;2.45;;
3099;SDS011;1560;52.746;13.474;2023-02-01T18:43:22;12.63;;;3.25;;
3099;SDS011;1560;52.746;13.474;2023-02-01T18:45:52;6.42;;;2.30;;
3099;SDS011;1560;52.746;13.474;2023-02-01T18:50:57;6.00;;;3.15;;
3099;SDS011;1560;52.746;13.474;2023-02-01T18:53:26;12.35;;;3.20;;
3099;SDS011;1560;52.746;13.474;2023-02-01T18:55:56;9.95;;;3.15;;
3099;SDS011;1560;52.746;13.474;2023-02-01T18:58:25;11.75;;;3.00;;
3099;SDS011;1560;52.746;13.474;2023-02-01T19:00:55;14.95;;;2.98;;
3099;SDS011;1560;52.746;13.474;2023-02-01T19:06:02;18.50;;;3.98;;
3099;SDS011;1560;52.746;13.474;2023-02-01T19:08:31;9.65;;;2.67;;
3099;SDS011;1560;52.746;13.474;2023-02-01T19:13:37;12.93;;;3.10;;
3099;SDS011;1560;52.746;13.474;2023-02-01T19:16:07;5.05;;;2.55;;
3099;SDS011;1560;52.746;13.474;2023-02-01T19:18:38;5.67;;;2.40;;
3099;SDS011;1560;52.746;13.474;2023-02-01T19:21:07;8.18;;;2.45;;
3099;SDS011;1560;52.746;13.474;2023-02-01T19:23:39;10.00;;;2.87;;
3099;SDS011;1560;52.746;13.474;2023-02-01T19:26:10;5.72;;;2.95;;
3099;SDS011;1560;52.746;13.474;2023-02-01T19:28:39;13.85;;;2.47;;
3099;SDS011;1560;52.746;13.474;2023-02-01T19:31:10;17.82;;;3.02;;
3099;SDS011;1560;52.746;13.474;2023-02-01T19:33:38;7.33;;;2.08;;
3099;SDS011;1560;52.746;13.474;2023-02-01T19:36:07;9.38;;;2.60;;
3099;SDS011;1560;52.746;13.474;2023-02-01T19:38:37;13.88;;;2.80;;
3099;SDS011;1560;52.746;13.474;2023-02-01T19:41:06;10.72;;;2.80;;
3099;SDS011;1560;52.746;13.474;2023-02-01T19:43:35;6.72;;;2.22;;
3099;SDS011;1560;52.746;13.474;2023-02-01T19:46:05;6.87;;;2.50;;
3099;SDS011;1560;52.746;13.474;2023-02-01T19:51:10;9.03;;;2.35;;
3099;SDS011;1560;52.746;13.474;2023-02-01T19:53:39;5.17;;;2.10;;
3099;SDS011;1560;52.746;13.474;2023-02-01T19:56:08;15.03;;;2.30;;
3099;SDS011;1560;52.746;13.474;2023-02-01T19:58:37;12.60;;;2.85;;
3099;SDS011;1560;52.746;13.474;2023-02-01T20:01:15;15.68;;;4.28;;
3099;SDS011;1560;52.746;13.474;2023-02-01T20:03:45;9.20;;;3.22;;
3099;SDS011;1560;52.746;13.474;2023-02-01T20:06:13;8.65;;;2.55;;
3099;SDS011;1560;52.746;13.474;2023-02-01T20:08:42;15.75;;;3.83;;
3099;SDS011;1560;52.746;13.474;2023-02-01T20:11:11;13.08;;;3.75;;
3099;SDS011;1560;52.746;13.474;2023-02-01T20:16:16;19.82;;;3.75;;
3099;SDS011;1560;52.746;13.474;2023-02-01T20:18:45;14.78;;;4.15;;
3099;SDS011;1560;52.746;13.474;2023-02-01T20:21:15;15.15;;;3.62;;
3099;SDS011;1560;52.746;13.474;2023-02-01T20:23:45;15.32;;;2.85;;
3099;SDS011;1560;52.746;13.474;2023-02-01T20:26:15;19.27;;;5.28;;
3099;SDS011;1560;52.746;13.474;2023-02-01T20:28:53;8.33;;;3.30;;
3099;SDS011;1560;52.746;13.474;2023-02-01T20:31:22;10.13;;;3.20;;
3099;SDS011;1560;52.746;13.474;2023-02-01T20:36:28;12.80;;;3.33;;
3099;SDS011;1560;52.746;13.474;2023-02-01T20:38:57;18.82;;;10.58;;
3099;SDS011;1560;52.746;13.474;2023-02-01T20:41:27;20.32;;;9.73;;
3099;SDS011;1560;52.746;13.474;2023-02-01T20:43:56;12.93;;;6.60;;
3099;SDS011;1560;52.746;13.474;2023-02-01T20:46:25;13.13;;;3.35;;
3099;SDS011;1560;52.746;13.474;2023-02-01T20:48:54;16.62;;;4.15;;
3099;SDS011;1560;52.746;13.474;2023-02-01T20:51:23;13.95;;;3.65;;
3099;SDS011;1560;52.746;13.474;2023-02-01T20:53:52;14.68;;;3.47;;
3099;SDS011;1560;52.746;13.474;2023-02-01T20:56:21;22.15;;;3.75;;
3099;SDS011;1560;52.746;13.474;2023-02-01T20:58:50;11.35;;;2.95;;
3099;SDS011;1560;52.746;13.474;2023-02-01T21:01:19;12.37;;;2.70;;
3099;SDS011;1560;52.746;13.474;2023-02-01T21:06:24;9.40;;;3.22;;
3099;SDS011;1560;52.746;13.474;2023-02-01T21:08:53;15.03;;;3.08;;
3099;SDS011;1560;52.746;13.474;2023-02-01T21:11:21;9.73;;;3.65;;
3099;SDS011;1560;52.746;13.474;2023-02-01T21:13:50;9.53;;;3.33;;
3099;SDS011;1560;52.746;13.474;2023-02-01T21:16:20;14.50;;;3.65;;
3099;SDS011;1560;52.746;13.474;2023-02-01T21:18:49;10.05;;;2.52;;
3099;SDS011;1560;52.746;13.474;2023-02-01T21:23:55;10.88;;;3.05;;
3099;SDS011;1560;52.746;13.474;2023-02-01T21:26:25;7.97;;;3.45;;
3099;SDS011;1560;52.746;13.474;2023-02-01T21:31:30;11.35;;;2.90;;
3099;SDS011;1560;52.746;13.474;2023-02-01T21:33:59;5.40;;;2.27;;
3099;SDS011;1560;52.746;13.474;2023-02-01T21:36:28;25.40;;;4.40;;
3099;SDS011;1560;52.746;13.474;2023-02-01T21:39:01;10.18;;;2.80;;
3099;SDS011;1560;52.746;13.474;2023-02-01T21:44:07;12.23;;;3.85;;
3099;SDS011;1560;52.746;13.474;2023-02-01T21:46:38;16.52;;;3.42;;
3099;SDS011;1560;52.746;13.474;2023-02-01T21:51:44;13.08;;;4.22;;
3099;SDS011;1560;52.746;13.474;2023-02-01T21:54:13;8.40;;;2.77;;
3099;SDS011;1560;52.746;13.474;2023-02-01T21:56:42;15.68;;;3.08;;
3099;SDS011;1560;52.746;13.474;2023-02-01T21:59:11;12.78;;;3.92;;
3099;SDS011;1560;52.746;13.474;2023-02-01T22:01:49;5.00;;;2.50;;
3099;SDS011;1560;52.746;13.474;2023-02-01T22:04:17;7.53;;;3.22;;
3099;SDS011;1560;52.746;13.474;2023-02-01T22:06:46;14.75;;;3.15;;
3099;SDS011;1560;52.746;13.474;2023-02-01T22:11:52;12.93;;;2.95;;
3099;SDS011;1560;52.746;13.474;2023-02-01T22:14:21;13.18;;;3.33;;
3099;SDS011;1560;52.746;13.474;2023-02-01T22:16:50;15.95;;;2.95;;
3099;SDS011;1560;52.746;13.474;2023-02-01T22:21:56;16.48;;;2.95;;
3099;SDS011;1560;52.746;13.474;2023-02-01T22:24:25;12.05;;;2.90;;
3099;SDS011;1560;52.746;13.474;2023-02-01T22:26:54;18.12;;;3.55;;
3099;SDS011;1560;52.746;13.474;2023-02-01T22:29:22;9.95;;;3.12;;
3099;SDS011;1560;52.746;13.474;2023-02-01T22:31:52;16.12;;;3.37;;
3099;SDS011;1560;52.746;13.474;2023-02-01T22:34:21;14.00;;;3.55;;
3099;SDS011;1560;52.746;13.474;2023-02-01T22:36:49;11.22;;;2.35;;
3099;SDS011;1560;52.746;13.474;2023-02-01T22:41:54;13.55;;;2.70;;
3099;SDS011;1560;52.746;13.474;2023-02-01T22:44:23;17.75;;;2.80;;
3099;SDS011;1560;52.746;13.474;2023-02-01T22:46:52;12.93;;;3.80;;
3099;SDS011;1560;52.746;13.474;2023-02-01T22:49:21;11.80;;;2.90;;
3099;SDS011;1560;52.746;13.474;2023-02-01T22:54:26;10.93;;;3.37;;
3099;SDS011;1560;52.746;13.474;2023-02-01T22:56:55;11.18;;;3.60;;
3099;SDS011;1560;52.746;13.474;2023-02-01T22:59:25;11.45;;;2.90;;
3099;SDS011;1560;52.746;13.474;2023-02-01T23:01:54;12.63;;;3.10;;
3099;SDS011;1560;52.746;13.474;2023-02-01T23:04:23;8.98;;;3.00;;
3099;SDS011;1560;52.746;13.474;2023-02-01T23:06:52;12.75;;;2.27;;
3099;SDS011;1560;52.746;13.474;2023-02-01T23:11:58;18.12;;;2.98;;
3099;SDS011;1560;52.746;13.474;2023-02-01T23:14:27;15.13;;;2.67;;
3099;SDS011;1560;52.746;13.474;2023-02-01T23:16:56;11.53;;;2.83;;
3099;SDS011;1560;52.746;13.474;2023-02-01T23:19:25;15.13;;;2.90;;
3099;SDS011;1560;52.746;13.474;2023-02-01T23:21:53;10.05;;;2.22;;
3099;SDS011;1560;52.746;13.474;2023-02-01T23:24:22;8.38;;;3.22;;
3099;SDS011;1560;52.746;13.474;2023-02-01T23:26:51;9.88;;;2.20;;
3099;SDS011;1560;52.746;13.474;2023-02-01T23:31:56;19.05;;;4.35;;
3099;SDS011;1560;52.746;13.474;2023-02-01T23:34:25;15.30;;;2.80;;
3099;SDS011;1560;52.746;13.474;2023-02-01T23:36:54;10.18;;;2.70;;
3099;SDS011;1560;52.746;13.474;2023-02-01T23:39:23;23.80;;;3.58;;
3099;SDS011;1560;52.746;13.474;2023-02-01T23:41:52;7.70;;;2.25;;
3099;SDS011;1560;52.746;13.474;2023-02-01T23:44:20;17.73;;;3.90;;
3099;SDS011;1560;52.746;13.474;2023-02-01T23:46:49;10.23;;;3.92;;
3099;SDS011;1560;52.746;13.474;2023-02-01T23:49:18;5.90;;;3.00;;
3099;SDS011;1560;52.746;13.474;2023-02-01T23:51:47;14.28;;;3.60;;
3099;SDS011;1560;52.746;13.474;2023-02-01T23:54:20;16.77;;;2.85;;
3099;SDS011;1560;52.746;13.474;2023-02-01T23:56:50;19.42;;;3.20;;
3099;SDS011;1560;52.746;13.474;2023-02-01T23:59:20;11.93;;;2.87;;
